createdAt,value
2023-02-03T00:02:20.021Z,2.08
2023-02-03T00:04:46.478Z,1.90
2023-02-03T00:07:14.176Z,2.20
2023-02-03T00:09:43.417Z,2.38
2023-02-03T00:12:10.112Z,2.25
2023-02-03T00:14:37.933Z,2.00
2023-02-03T00:17:05.203Z,2.15
2023-02-03T00:19:31.801Z,2.22
2023-02-03T00:21:58.249Z,2.25
2023-02-03T00:24:24.775Z,2.30
2023-02-03T00:26:51.268Z,2.75
2023-02-03T00:29:18.680Z,2.00
2023-02-03T00:31:45.320Z,2.03
2023-02-03T00:34:11.837Z,2.13
2023-02-03T00:36:38.342Z,2.17
2023-02-03T00:39:04.869Z,2.00
2023-02-03T00:41:31.803Z,2.00
2023-02-03T00:43:58.470Z,2.15
2023-02-03T00:46:25.041Z,2.13
2023-02-03T00:48:51.523Z,2.20
2023-02-03T00:51:18.023Z,1.77
2023-02-03T00:53:44.539Z,2.25
2023-02-03T00:56:12.825Z,2.05
2023-02-03T00:58:40.409Z,2.10
2023-02-03T01:01:07.728Z,1.98
2023-02-03T01:03:34.411Z,2.75
2023-02-03T01:06:27.679Z,1.70
2023-02-03T01:08:54.478Z,1.73
2023-02-03T01:11:23.654Z,1.75
2023-02-03T01:13:51.762Z,1.90
2023-02-03T01:16:20.790Z,1.63
2023-02-03T01:18:48.060Z,1.90
2023-02-03T01:21:17.466Z,2.20
2023-02-03T01:23:44.049Z,1.90
2023-02-03T01:26:17.779Z,2.03
2023-02-03T01:28:44.828Z,1.50
2023-02-03T01:31:14.300Z,1.92
2023-02-03T01:33:41.559Z,1.92
2023-02-03T01:36:09.894Z,1.60
2023-02-03T01:38:38.129Z,2.05
2023-02-03T01:41:06.856Z,1.67
2023-02-03T01:43:35.966Z,1.85
2023-02-03T01:46:07.324Z,1.90
2023-02-03T01:48:34.880Z,1.50
2023-02-03T01:51:03.289Z,1.80
2023-02-03T01:55:57.536Z,1.70
2023-02-03T01:58:32.303Z,1.90
2023-02-03T02:00:59.103Z,1.50
2023-02-03T02:03:34.680Z,1.80
2023-02-03T02:06:05.618Z,2.00
2023-02-03T02:08:32.344Z,1.73
2023-02-03T02:11:02.781Z,1.60
2023-02-03T02:13:31.728Z,1.38
2023-02-03T02:16:12.042Z,1.40
2023-02-03T02:18:53.017Z,1.50
2023-02-03T02:21:22.666Z,1.75
2023-02-03T02:24:15.443Z,1.40
2023-02-03T02:27:01.495Z,1.70
2023-02-03T02:29:55.828Z,1.80
2023-02-03T02:32:54.689Z,1.38
2023-02-03T02:36:12.153Z,1.63
2023-02-03T02:41:35.299Z,1.90
2023-02-03T02:44:09.813Z,1.50
2023-02-03T02:49:17.753Z,1.52
2023-02-03T02:51:45.293Z,1.15
2023-02-03T02:54:17.238Z,1.40
2023-02-03T02:56:48.166Z,1.35
2023-02-03T02:59:15.461Z,1.60
2023-02-03T03:01:41.922Z,1.17
2023-02-03T03:04:11.579Z,1.35
2023-02-03T03:06:41.313Z,1.42
2023-02-03T03:09:15.081Z,1.20
2023-02-03T03:11:47.101Z,1.60
2023-02-03T03:14:18.468Z,1.60
2023-02-03T03:16:50.916Z,1.10
2023-02-03T03:19:27.408Z,1.15
2023-02-03T03:21:57.129Z,1.23
2023-02-03T03:24:29.405Z,0.88
2023-02-03T03:26:58.077Z,1.00
2023-02-03T03:29:30.226Z,1.00
2023-02-03T03:31:58.447Z,1.10
2023-02-03T03:34:25.031Z,0.90
2023-02-03T03:37:18.018Z,1.20
2023-02-03T03:42:20.673Z,1.20
2023-02-03T03:44:55.655Z,1.10
2023-02-03T03:47:30.368Z,1.15
2023-02-03T03:49:59.786Z,1.42
2023-02-03T03:52:30.655Z,1.42
2023-02-03T03:54:59.454Z,1.40
2023-02-03T03:57:46.090Z,1.13
2023-02-03T04:00:17.566Z,1.17
2023-02-03T04:02:49.048Z,1.92
2023-02-03T04:05:15.900Z,1.20
2023-02-03T04:07:44.934Z,1.20
2023-02-03T04:10:32.841Z,1.23
2023-02-03T04:12:59.738Z,1.13
2023-02-03T04:15:26.285Z,1.00
2023-02-03T04:17:54.611Z,1.10
2023-02-03T04:20:21.290Z,0.93
2023-02-03T04:22:47.856Z,1.20
2023-02-03T04:25:14.477Z,1.10
2023-02-03T04:27:41.158Z,1.20
2023-02-03T04:30:08.620Z,1.23
2023-02-03T04:32:35.644Z,1.30
2023-02-03T04:35:03.322Z,1.13
2023-02-03T04:37:29.772Z,0.90
2023-02-03T04:39:56.919Z,1.20
2023-02-03T04:42:24.499Z,0.82
2023-02-03T04:44:51.386Z,0.90
2023-02-03T04:47:18.539Z,0.90
2023-02-03T04:49:45.838Z,0.93
2023-02-03T04:52:13.247Z,1.33
2023-02-03T04:54:40.020Z,1.00
2023-02-03T04:57:07.047Z,1.02
2023-02-03T04:59:33.607Z,1.02
2023-02-03T05:02:03.189Z,0.90
2023-02-03T05:04:29.930Z,1.00
2023-02-03T05:06:57.518Z,1.00
2023-02-03T05:09:25.120Z,1.00
2023-02-03T05:11:52.115Z,1.08
2023-02-03T05:14:18.694Z,1.00
2023-02-03T05:16:46.382Z,0.85
2023-02-03T05:19:12.998Z,1.10
2023-02-03T05:21:39.519Z,1.00
2023-02-03T05:24:07.956Z,1.00
2023-02-03T05:26:35.913Z,1.27
2023-02-03T05:29:03.349Z,0.95
2023-02-03T05:31:29.892Z,0.90
2023-02-03T05:33:56.413Z,1.15
2023-02-03T05:36:23.197Z,1.10
2023-02-03T05:38:49.780Z,1.17
2023-02-03T05:41:34.876Z,1.30
2023-02-03T05:44:01.337Z,1.08
2023-02-03T05:46:27.944Z,1.20
2023-02-03T05:48:54.452Z,1.00
2023-02-03T05:51:21.006Z,1.20
2023-02-03T05:53:47.483Z,0.90
2023-02-03T05:56:13.973Z,1.35
2023-02-03T05:58:40.446Z,1.15
2023-02-03T06:01:06.946Z,1.23
2023-02-03T06:03:33.626Z,1.08
2023-02-03T06:06:00.192Z,1.15
2023-02-03T06:08:28.667Z,1.20
2023-02-03T06:11:00.270Z,1.35
2023-02-03T06:13:27.647Z,1.20
2023-02-03T06:15:54.660Z,1.23
2023-02-03T06:18:21.350Z,1.00
2023-02-03T06:20:48.127Z,1.20
2023-02-03T06:23:17.086Z,1.33
2023-02-03T06:25:43.701Z,1.45
2023-02-03T06:28:10.328Z,0.95
2023-02-03T06:30:36.972Z,1.10
2023-02-03T06:33:03.485Z,1.35
2023-02-03T06:35:30.077Z,1.33
2023-02-03T06:37:56.691Z,1.30
2023-02-03T06:40:23.160Z,1.50
2023-02-03T06:42:51.083Z,1.13
2023-02-03T06:45:18.124Z,1.02
2023-02-03T06:47:45.985Z,1.15
2023-02-03T06:50:15.014Z,1.02
2023-02-03T06:52:41.839Z,1.30
2023-02-03T06:55:08.643Z,1.33
2023-02-03T06:57:35.120Z,1.30
2023-02-03T07:00:01.888Z,1.30
2023-02-03T07:02:28.491Z,1.42
2023-02-03T07:04:54.966Z,1.27
2023-02-03T07:07:21.499Z,1.23
2023-02-03T07:09:48.107Z,1.33
2023-02-03T07:12:14.702Z,1.25
2023-02-03T07:14:41.247Z,1.50
2023-02-03T07:17:07.841Z,1.70
2023-02-03T07:19:34.427Z,1.48
2023-02-03T07:22:01.024Z,1.70
2023-02-03T07:24:27.515Z,1.33
2023-02-03T07:26:54.074Z,1.30
2023-02-03T07:29:20.664Z,1.48
2023-02-03T07:31:47.173Z,1.52
2023-02-03T07:34:13.797Z,1.40
2023-02-03T07:36:41.414Z,1.73
2023-02-03T07:39:07.903Z,1.33
2023-02-03T07:41:34.414Z,1.40
2023-02-03T07:44:00.861Z,1.30
2023-02-03T07:46:27.588Z,1.45
2023-02-03T07:48:54.270Z,1.40
2023-02-03T07:51:20.823Z,1.25
2023-02-03T07:53:47.372Z,1.40
2023-02-03T07:56:13.969Z,1.50
2023-02-03T07:58:40.466Z,1.65
2023-02-03T08:01:15.996Z,1.63
2023-02-03T08:03:42.896Z,1.40
2023-02-03T08:06:09.428Z,1.27
2023-02-03T08:08:36.053Z,1.10
2023-02-03T08:11:02.818Z,1.27
2023-02-03T08:13:29.353Z,1.50
2023-02-03T08:15:55.907Z,1.35
2023-02-03T08:18:22.571Z,1.42
2023-02-03T08:20:49.521Z,1.10
2023-02-03T08:23:16.362Z,1.10
2023-02-03T08:25:42.805Z,1.40
2023-02-03T08:28:09.597Z,1.48
2023-02-03T08:30:36.266Z,1.23
2023-02-03T08:33:02.817Z,1.45
2023-02-03T08:35:29.308Z,1.27
2023-02-03T08:37:56.297Z,1.75
2023-02-03T08:40:22.793Z,1.60
2023-02-03T08:42:49.372Z,1.40
2023-02-03T08:45:15.850Z,1.73
2023-02-03T08:47:42.443Z,1.63
2023-02-03T08:50:09.785Z,1.80
2023-02-03T08:52:36.450Z,1.67
2023-02-03T08:55:03.013Z,2.00
2023-02-03T08:57:34.181Z,1.27
2023-02-03T09:00:00.816Z,1.40
2023-02-03T09:02:27.401Z,1.33
2023-02-03T09:04:54.075Z,1.30
2023-02-03T09:07:20.717Z,1.70
2023-02-03T09:09:47.328Z,1.60
2023-02-03T09:12:14.036Z,2.25
2023-02-03T09:14:40.607Z,1.50
2023-02-03T09:17:10.258Z,1.88
2023-02-03T09:19:36.893Z,2.20
2023-02-03T09:22:03.715Z,1.88
2023-02-03T09:24:30.743Z,1.40
2023-02-03T09:26:57.556Z,1.77
2023-02-03T09:29:24.331Z,1.50
2023-02-03T09:31:53.000Z,1.60
2023-02-03T09:34:20.892Z,1.92
2023-02-03T09:36:48.291Z,1.55
2023-02-03T09:39:15.839Z,1.40
2023-02-03T09:42:00.952Z,1.65
2023-02-03T09:44:41.664Z,1.65
2023-02-03T09:47:14.405Z,1.45
2023-02-03T09:49:40.921Z,1.60
2023-02-03T09:52:22.921Z,1.58
2023-02-03T09:54:59.159Z,1.70
2023-02-03T09:57:28.778Z,1.60
2023-02-03T09:59:58.445Z,1.58
2023-02-03T10:02:48.802Z,1.63
2023-02-03T10:05:29.978Z,1.15
2023-02-03T10:08:17.639Z,1.15
2023-02-03T10:11:09.675Z,1.10
2023-02-03T10:13:57.991Z,2.15
2023-02-03T10:16:24.560Z,1.30
2023-02-03T10:18:55.076Z,1.38
2023-02-03T10:21:30.552Z,1.30
2023-02-03T10:24:00.671Z,1.33
2023-02-03T10:26:29.119Z,1.33
2023-02-03T10:29:07.201Z,1.25
2023-02-03T10:31:36.629Z,1.50
2023-02-03T10:34:12.434Z,1.60
2023-02-03T10:36:57.210Z,1.45
2023-02-03T10:39:30.768Z,1.30
2023-02-03T10:41:57.514Z,1.30
2023-02-03T10:44:38.284Z,1.38
2023-02-03T10:47:31.091Z,1.45
2023-02-03T10:52:32.530Z,1.30
2023-02-03T10:55:04.735Z,1.40
2023-02-03T10:57:31.532Z,1.60
2023-02-03T11:00:16.875Z,1.38
2023-02-03T11:02:43.698Z,1.55
2023-02-03T11:05:16.255Z,1.73
2023-02-03T11:07:44.258Z,1.35
2023-02-03T11:10:40.155Z,1.52
2023-02-03T11:13:19.775Z,1.50
2023-02-03T11:16:07.841Z,1.30
2023-02-03T11:18:56.413Z,1.60
2023-02-03T11:21:24.527Z,1.20
2023-02-03T11:23:56.809Z,1.45
2023-02-03T11:26:31.821Z,1.90
2023-02-03T11:29:00.573Z,1.48
2023-02-03T11:31:29.934Z,1.52
2023-02-03T11:34:06.740Z,1.58
2023-02-03T11:36:35.344Z,2.13
2023-02-03T11:39:19.736Z,1.80
2023-02-03T11:41:47.795Z,1.90
2023-02-03T11:44:26.438Z,1.60
2023-02-03T11:47:04.447Z,1.38
2023-02-03T11:49:49.341Z,1.80
2023-02-03T11:52:50.435Z,1.85
2023-02-03T11:55:35.755Z,1.73
2023-02-03T11:58:29.582Z,4.93
2023-02-03T12:01:22.850Z,6.22
2023-02-03T12:04:02.563Z,3.00
2023-02-03T12:07:13.484Z,2.13
2023-02-03T12:10:13.505Z,1.70
2023-02-03T12:13:18.980Z,2.17
2023-02-03T12:16:36.440Z,2.08
2023-02-03T12:19:08.649Z,2.05
2023-02-03T12:21:44.566Z,2.08
2023-02-03T12:24:26.802Z,2.13
2023-02-03T12:27:43.232Z,2.20
2023-02-03T12:30:15.759Z,1.92
2023-02-03T12:33:01.479Z,1.63
2023-02-03T12:35:36.966Z,2.10
2023-02-03T12:38:16.433Z,2.22
2023-02-03T12:40:52.766Z,2.20
2023-02-03T12:43:23.576Z,2.25
2023-02-03T12:45:55.835Z,2.15
2023-02-03T12:48:27.323Z,2.20
2023-02-03T12:50:58.927Z,2.28
2023-02-03T12:53:38.893Z,1.95
2023-02-03T12:56:14.997Z,2.17
2023-02-03T12:58:47.702Z,2.15
2023-02-03T13:01:26.772Z,2.75
2023-02-03T13:04:17.972Z,2.10
2023-02-03T13:07:09.064Z,3.03
2023-02-03T13:09:48.283Z,2.60
2023-02-03T13:12:31.611Z,2.63
2023-02-03T13:15:19.182Z,2.47
2023-02-03T13:18:01.432Z,3.22
2023-02-03T13:20:35.979Z,2.58
2023-02-03T13:23:14.126Z,2.45
2023-02-03T13:25:50.493Z,2.65
2023-02-03T13:28:39.194Z,4.72
2023-02-03T13:31:08.915Z,4.40
2023-02-03T13:33:47.741Z,3.05
2023-02-03T13:36:39.186Z,2.58
2023-02-03T13:39:43.854Z,2.65
2023-02-03T13:42:19.513Z,3.13
2023-02-03T13:44:51.564Z,2.28
2023-02-03T13:47:26.609Z,2.40
2023-02-03T13:49:59.989Z,2.10
2023-02-03T13:52:44.475Z,2.00
2023-02-03T13:55:28.607Z,2.20
2023-02-03T13:57:55.537Z,2.17
2023-02-03T14:00:44.023Z,2.30
2023-02-03T14:03:25.766Z,2.15
2023-02-03T14:05:54.974Z,2.13
2023-02-03T14:08:27.610Z,2.10
2023-02-03T14:11:31.924Z,2.13
2023-02-03T14:14:07.387Z,2.97
2023-02-03T14:16:52.600Z,2.63
2023-02-03T14:19:29.764Z,2.20
2023-02-03T14:22:01.280Z,2.10
2023-02-03T14:24:33.250Z,2.45
2023-02-03T14:27:01.248Z,3.08
2023-02-03T14:29:35.346Z,2.70
2023-02-03T14:32:04.580Z,2.38
2023-02-03T14:34:35.519Z,1.80
2023-02-03T14:37:40.897Z,2.00
2023-02-03T14:40:32.533Z,2.25
2023-02-03T14:43:38.363Z,2.83
2023-02-03T14:46:34.991Z,1.95
2023-02-03T14:49:30.878Z,2.17
2023-02-03T14:52:31.894Z,2.20
2023-02-03T14:55:24.000Z,1.90
2023-02-03T14:58:00.137Z,2.83
2023-02-03T15:00:34.850Z,2.72
2023-02-03T15:03:09.234Z,1.60
2023-02-03T15:05:36.049Z,1.98
2023-02-03T15:08:03.575Z,2.42
2023-02-03T15:10:42.340Z,2.17
2023-02-03T15:13:30.856Z,2.53
2023-02-03T15:16:04.190Z,7.05
2023-02-03T15:18:33.247Z,3.08
2023-02-03T15:20:59.859Z,2.70
2023-02-03T15:23:29.209Z,3.05
2023-02-03T15:26:01.466Z,2.50
2023-02-03T15:28:30.331Z,2.13
2023-02-03T15:31:05.859Z,3.20
2023-02-03T15:33:36.954Z,2.70
2023-02-03T15:36:13.062Z,2.58
2023-02-03T15:38:44.806Z,2.60
2023-02-03T15:41:26.225Z,2.38
2023-02-03T15:44:08.511Z,2.25
2023-02-03T15:46:49.754Z,2.28
2023-02-03T15:49:23.337Z,2.70
2023-02-03T15:51:58.691Z,4.47
2023-02-03T15:54:42.262Z,10.23
2023-02-03T15:57:16.417Z,14.73
2023-02-03T15:59:54.154Z,6.40
2023-02-03T16:02:34.965Z,9.07
2023-02-03T16:05:14.640Z,5.85
2023-02-03T16:07:41.146Z,3.55
2023-02-03T16:10:26.348Z,2.85
2023-02-03T16:12:52.959Z,2.60
2023-02-03T16:15:25.057Z,2.45
2023-02-03T16:17:57.627Z,8.05
2023-02-03T16:20:28.448Z,4.72
2023-02-03T16:23:18.477Z,3.97
2023-02-03T16:26:21.583Z,4.38
2023-02-03T16:29:29.099Z,9.68
2023-02-03T16:32:14.856Z,7.18
2023-02-03T16:34:59.991Z,4.93
2023-02-03T16:37:53.770Z,4.20
2023-02-03T16:40:41.089Z,3.22
2023-02-03T16:43:34.048Z,4.50
2023-02-03T16:49:04.980Z,5.57
2023-02-03T16:51:39.055Z,8.95
2023-02-03T16:54:06.267Z,4.65
2023-02-03T16:56:32.964Z,2.90
2023-02-03T16:58:59.440Z,4.22
2023-02-03T17:01:26.033Z,3.83
2023-02-03T17:03:52.522Z,2.70
2023-02-03T17:06:19.049Z,2.40
2023-02-03T17:08:45.981Z,2.65
2023-02-03T17:11:19.786Z,2.75
2023-02-03T17:13:47.620Z,3.30
2023-02-03T17:16:20.877Z,2.15
2023-02-03T17:18:47.372Z,4.72
2023-02-03T17:21:16.759Z,2.85
2023-02-03T17:23:43.299Z,2.83
2023-02-03T17:26:09.828Z,3.45
2023-02-03T17:28:36.841Z,3.92
2023-02-03T17:31:06.040Z,3.00
2023-02-03T17:33:34.084Z,4.03
2023-02-03T17:36:02.017Z,4.10
2023-02-03T17:38:28.656Z,2.83
2023-02-03T17:54:38.242Z,3.22
2023-02-03T17:57:04.904Z,2.22
2023-02-03T17:59:31.457Z,2.70
2023-02-03T18:01:58.092Z,2.97
2023-02-03T18:04:24.577Z,2.72
2023-02-03T18:06:53.366Z,4.18
2023-02-03T18:09:20.645Z,4.93
2023-02-03T18:11:47.269Z,8.38
2023-02-03T18:14:15.074Z,7.03
2023-02-03T18:16:42.959Z,8.10
2023-02-03T18:19:14.173Z,3.63
2023-02-03T18:21:42.424Z,8.00
2023-02-03T18:24:12.371Z,2.78
2023-02-03T18:26:51.315Z,3.10
2023-02-03T18:29:18.326Z,2.60
2023-02-03T18:31:45.199Z,2.65
2023-02-03T18:34:12.340Z,2.67
2023-02-03T18:39:06.298Z,3.42
2023-02-03T18:41:32.964Z,2.63
2023-02-03T18:43:59.427Z,3.28
2023-02-03T18:46:29.260Z,2.45
2023-02-03T18:48:56.293Z,2.60
2023-02-03T18:51:24.662Z,2.42
2023-02-03T18:53:51.490Z,3.00
2023-02-03T18:56:21.265Z,2.50
2023-02-03T18:58:48.537Z,3.17
2023-02-03T19:01:27.140Z,2.40
2023-02-03T19:03:59.003Z,2.70
2023-02-03T19:06:27.389Z,3.17
2023-02-03T19:08:54.023Z,2.90
2023-02-03T19:11:20.730Z,7.35
2023-02-03T19:13:47.331Z,6.78
2023-02-03T19:16:16.835Z,4.35
2023-02-03T19:18:46.588Z,7.63
2023-02-03T19:21:13.751Z,4.03
2023-02-03T19:23:41.648Z,3.45
2023-02-03T19:26:10.023Z,3.88
2023-02-03T19:28:36.787Z,3.97
2023-02-03T19:31:15.073Z,3.75
2023-02-03T19:33:41.814Z,6.05
2023-02-03T19:36:09.431Z,7.70
2023-02-03T19:38:36.534Z,6.22
2023-02-03T19:41:03.635Z,6.25
2023-02-03T19:43:31.385Z,8.70
2023-02-03T19:45:58.465Z,5.35
2023-02-03T19:48:25.248Z,14.48
2023-02-03T19:50:51.911Z,5.00
2023-02-03T19:53:18.599Z,3.22
2023-02-03T19:55:46.369Z,4.00
2023-02-03T19:58:13.743Z,3.63
2023-02-03T20:00:41.871Z,3.47
2023-02-03T20:03:08.887Z,3.13
2023-02-03T20:05:36.378Z,4.00
2023-02-03T20:08:03.905Z,4.15
2023-02-03T20:10:32.548Z,3.30
2023-02-03T20:12:59.459Z,2.88
2023-02-03T20:15:26.878Z,3.22
2023-02-03T20:17:53.548Z,4.00
2023-02-03T20:20:20.952Z,3.67
2023-02-03T20:22:48.613Z,4.10
2023-02-03T20:25:15.514Z,3.83
2023-02-03T20:27:42.609Z,3.80
2023-02-03T20:30:09.934Z,5.63
2023-02-03T20:32:36.851Z,6.57
2023-02-03T20:35:05.009Z,7.55
2023-02-03T20:37:32.542Z,4.05
2023-02-03T20:39:59.019Z,2.97
2023-02-03T20:42:25.509Z,2.80
2023-02-03T20:44:52.047Z,3.00
2023-02-03T20:47:19.486Z,2.80
2023-02-03T20:49:46.235Z,2.30
2023-02-03T20:52:16.097Z,2.40
2023-02-03T20:54:42.862Z,2.60
2023-02-03T20:57:18.173Z,2.60
2023-02-03T20:59:45.868Z,2.58
2023-02-03T21:02:22.847Z,2.90
2023-02-03T21:05:00.315Z,2.60
2023-02-03T21:07:30.810Z,2.70
2023-02-03T21:09:59.879Z,2.60
2023-02-03T21:12:28.590Z,2.20
2023-02-03T21:14:55.501Z,2.95
2023-02-03T21:17:25.805Z,2.42
2023-02-03T21:19:53.949Z,2.40
2023-02-03T21:22:26.196Z,2.47
2023-02-03T21:25:03.401Z,2.33
2023-02-03T21:27:32.450Z,2.65
2023-02-03T21:30:01.376Z,2.50
2023-02-03T21:32:39.161Z,2.80
2023-02-03T21:35:24.075Z,2.80
2023-02-03T21:37:55.980Z,2.78
2023-02-03T21:40:32.314Z,2.60
2023-02-03T21:43:00.403Z,2.80
2023-02-03T21:45:37.527Z,2.72
2023-02-03T21:48:27.812Z,2.35
2023-02-03T21:50:56.720Z,2.53
2023-02-03T21:53:27.766Z,2.63
2023-02-03T21:55:55.200Z,3.10
2023-02-03T21:58:31.014Z,4.00
2023-02-03T22:01:06.232Z,4.20
2023-02-03T22:03:40.672Z,2.60
2023-02-03T22:06:13.930Z,2.15
2023-02-03T22:08:43.596Z,2.83
2023-02-03T22:11:11.026Z,2.70
2023-02-03T22:13:37.588Z,2.47
2023-02-03T22:16:04.709Z,2.05
2023-02-03T22:18:31.525Z,2.10
2023-02-03T22:20:58.098Z,2.30
2023-02-03T22:23:25.300Z,2.20
2023-02-03T22:25:51.902Z,1.90
2023-02-03T22:28:18.487Z,2.30
2023-02-03T22:30:45.204Z,2.00
2023-02-03T22:33:11.916Z,1.92
2023-02-03T22:35:38.403Z,1.90
2023-02-03T22:38:04.954Z,1.95
2023-02-03T22:40:31.835Z,2.13
2023-02-03T22:42:58.603Z,2.47
2023-02-03T22:45:25.375Z,2.50
2023-02-03T22:47:51.942Z,1.98
2023-02-03T22:50:24.623Z,2.30
2023-02-03T22:52:55.052Z,2.72
2023-02-03T22:55:22.199Z,2.28
2023-02-03T22:57:50.050Z,2.47
2023-02-03T23:00:22.310Z,2.55
2023-02-03T23:02:50.303Z,2.35
2023-02-03T23:05:18.253Z,2.28
2023-02-03T23:07:45.669Z,2.03
2023-02-03T23:10:17.336Z,2.78
2023-02-03T23:12:44.272Z,1.92
2023-02-03T23:15:11.400Z,1.95
2023-02-03T23:17:38.263Z,2.30
2023-02-03T23:20:06.843Z,2.40
2023-02-03T23:22:33.531Z,2.10
2023-02-03T23:25:00.461Z,2.13
2023-02-03T23:27:27.240Z,2.40
2023-02-03T23:29:53.879Z,2.45
2023-02-03T23:32:20.476Z,2.03
2023-02-03T23:35:05.660Z,2.30
2023-02-03T23:37:32.271Z,1.75
2023-02-03T23:39:58.834Z,1.92
2023-02-03T23:42:25.673Z,2.00
2023-02-03T23:44:52.101Z,2.00
2023-02-03T23:47:18.568Z,2.03
2023-02-03T23:49:45.143Z,1.55
2023-02-03T23:52:11.624Z,1.75
2023-02-03T23:54:38.149Z,2.10
2023-02-03T23:57:04.909Z,1.80
2023-02-03T23:59:31.674Z,1.92
